createdAt,value
2023-02-12T00:02:05.557Z,23.60
2023-02-12T00:04:36.180Z,23.70
2023-02-12T00:07:06.445Z,23.60
2023-02-12T00:09:36.733Z,23.70
2023-02-12T00:12:07.145Z,23.70
2023-02-12T00:14:39.048Z,23.70
2023-02-12T00:17:09.347Z,23.70
2023-02-12T00:19:39.670Z,23.80
2023-02-12T00:22:09.960Z,23.80
2023-02-12T00:24:40.297Z,23.80
2023-02-12T00:27:10.685Z,23.80
2023-02-12T00:29:41.155Z,23.80
2023-02-12T00:32:11.547Z,23.80
2023-02-12T00:34:42.278Z,23.80
2023-02-12T00:37:12.517Z,23.80
2023-02-12T00:39:42.922Z,23.90
2023-02-12T00:42:13.173Z,23.90
2023-02-12T00:44:43.403Z,23.90
2023-02-12T00:47:13.725Z,23.90
2023-02-12T00:49:43.917Z,23.90
2023-02-12T00:52:14.167Z,23.90
2023-02-12T00:54:44.510Z,23.90
2023-02-12T00:57:14.836Z,24.00
2023-02-12T00:59:45.133Z,24.00
2023-02-12T01:02:15.490Z,24.00
2023-02-12T01:04:46.032Z,24.00
2023-02-12T01:07:16.340Z,24.00
2023-02-12T01:09:46.586Z,24.00
2023-02-12T01:12:16.899Z,24.10
2023-02-12T01:14:47.125Z,24.10
2023-02-12T01:17:17.532Z,24.10
2023-02-12T01:19:47.776Z,24.10
2023-02-12T01:22:18.383Z,24.10
2023-02-12T01:24:48.578Z,24.10
2023-02-12T01:27:19.128Z,24.10
2023-02-12T01:29:49.398Z,24.10
2023-02-12T01:32:19.723Z,24.20
2023-02-12T01:34:50.086Z,24.20
2023-02-12T01:37:20.344Z,24.20
2023-02-12T01:39:50.574Z,24.20
2023-02-12T01:42:21.161Z,24.20
2023-02-12T01:45:15.566Z,24.20
2023-02-12T01:47:47.799Z,24.30
2023-02-12T01:50:21.963Z,24.30
2023-02-12T01:52:59.972Z,24.30
2023-02-12T01:55:30.760Z,24.30
2023-02-12T01:58:01.129Z,24.30
2023-02-12T02:00:31.814Z,24.30
2023-02-12T02:03:03.391Z,24.30
2023-02-12T02:05:58.108Z,24.40
2023-02-12T02:08:33.109Z,24.40
2023-02-12T02:11:03.719Z,24.40
2023-02-12T02:13:52.206Z,24.40
2023-02-12T02:16:29.863Z,24.50
2023-02-12T02:19:09.241Z,24.50
2023-02-12T02:21:48.856Z,24.50
2023-02-12T02:24:50.000Z,24.50
2023-02-12T02:27:27.725Z,24.50
2023-02-12T02:30:16.216Z,24.50
2023-02-12T02:33:24.645Z,24.60
2023-02-12T02:36:12.612Z,24.60
2023-02-12T02:38:45.392Z,24.60
2023-02-12T02:41:24.299Z,24.60
2023-02-12T02:43:55.535Z,24.70
2023-02-12T02:46:37.733Z,24.70
2023-02-12T02:49:16.091Z,24.70
2023-02-12T02:51:52.094Z,24.70
2023-02-12T02:54:41.570Z,24.70
2023-02-12T02:57:25.175Z,24.70
2023-02-12T03:00:10.389Z,24.70
2023-02-12T03:02:44.815Z,24.80
2023-02-12T03:05:35.569Z,24.80
2023-02-12T03:08:13.887Z,24.80
2023-02-12T03:10:53.289Z,24.80
2023-02-12T03:13:45.136Z,24.80
2023-02-12T03:16:25.814Z,24.90
2023-02-12T03:19:18.961Z,24.90
2023-02-12T03:22:02.539Z,24.90
2023-02-12T03:24:38.649Z,24.90
2023-02-12T03:27:24.875Z,24.90
2023-02-12T03:29:55.513Z,24.90
2023-02-12T03:32:38.761Z,24.90
2023-02-12T03:35:33.804Z,25.00
2023-02-12T03:38:37.447Z,25.00
2023-02-12T03:41:15.272Z,25.00
2023-02-12T03:44:22.987Z,25.00
2023-02-12T03:47:04.902Z,25.00
2023-02-12T03:49:58.168Z,25.00
2023-02-12T03:52:28.727Z,25.10
2023-02-12T03:54:59.181Z,25.10
2023-02-12T03:57:35.872Z,25.10
2023-02-12T04:00:13.482Z,25.20
2023-02-12T04:02:45.487Z,25.20
2023-02-12T04:05:27.845Z,25.20
2023-02-12T04:08:00.281Z,25.20
2023-02-12T04:10:59.696Z,25.20
2023-02-12T04:13:42.247Z,25.20
2023-02-12T04:16:33.187Z,25.30
2023-02-12T04:19:04.349Z,25.30
2023-02-12T04:22:08.503Z,25.30
2023-02-12T04:25:18.655Z,25.40
2023-02-12T04:28:06.341Z,25.40
2023-02-12T04:30:58.687Z,25.40
2023-02-12T04:33:34.312Z,25.40
2023-02-12T04:36:17.690Z,25.50
2023-02-12T04:38:55.965Z,25.50
2023-02-12T04:41:26.841Z,25.50
2023-02-12T04:43:57.061Z,25.50
2023-02-12T04:46:27.331Z,25.50
2023-02-12T04:49:00.458Z,25.50
2023-02-12T04:51:30.799Z,25.60
2023-02-12T04:54:01.126Z,25.60
2023-02-12T04:56:31.793Z,25.60
2023-02-12T04:59:02.317Z,25.60
2023-02-12T05:01:32.655Z,25.60
2023-02-12T05:04:03.564Z,25.70
2023-02-12T05:06:34.442Z,25.70
2023-02-12T05:09:05.608Z,25.70
2023-02-12T05:11:36.358Z,25.70
2023-02-12T05:14:07.922Z,25.80
2023-02-12T05:16:38.286Z,25.80
2023-02-12T05:19:11.108Z,25.80
2023-02-12T05:21:41.893Z,25.80
2023-02-12T05:24:12.495Z,25.80
2023-02-12T05:26:42.856Z,25.90
2023-02-12T05:29:13.243Z,25.90
2023-02-12T05:31:43.531Z,25.90
2023-02-12T05:34:15.401Z,25.90
2023-02-12T05:36:45.681Z,26.00
2023-02-12T05:39:16.006Z,25.90
2023-02-12T05:41:46.442Z,26.00
2023-02-12T05:44:16.927Z,26.00
2023-02-12T05:46:47.257Z,26.00
2023-02-12T05:49:17.847Z,26.00
2023-02-12T05:51:48.132Z,26.10
2023-02-12T05:54:18.521Z,26.10
2023-02-12T05:56:50.115Z,26.10
2023-02-12T05:59:23.748Z,26.10
2023-02-12T06:01:54.953Z,26.10
2023-02-12T06:04:29.405Z,26.20
2023-02-12T06:06:59.744Z,26.20
2023-02-12T06:09:30.263Z,26.20
2023-02-12T06:12:00.555Z,26.20
2023-02-12T06:14:31.973Z,26.20
2023-02-12T06:17:02.587Z,26.30
2023-02-12T06:19:33.075Z,26.30
2023-02-12T06:22:05.064Z,26.30
2023-02-12T06:24:35.483Z,26.30
2023-02-12T06:27:06.160Z,26.30
2023-02-12T06:29:36.820Z,26.30
2023-02-12T06:32:08.909Z,26.40
2023-02-12T06:34:39.435Z,26.40
2023-02-12T06:37:09.639Z,26.40
2023-02-12T06:39:40.480Z,26.40
2023-02-12T06:42:11.242Z,26.40
2023-02-12T06:44:41.537Z,26.40
2023-02-12T06:47:11.780Z,26.40
2023-02-12T06:49:42.257Z,26.50
2023-02-12T06:52:12.732Z,26.40
2023-02-12T06:54:43.414Z,26.50
2023-02-12T06:57:13.697Z,26.50
2023-02-12T06:59:44.168Z,26.50
2023-02-12T07:02:14.987Z,26.50
2023-02-12T07:04:45.295Z,26.50
2023-02-12T07:07:15.534Z,26.50
2023-02-12T07:09:45.760Z,26.60
2023-02-12T07:12:16.046Z,26.60
2023-02-12T07:14:46.324Z,26.60
2023-02-12T07:17:16.609Z,26.60
2023-02-12T07:19:47.036Z,26.60
2023-02-12T07:22:17.240Z,26.60
2023-02-12T07:24:48.578Z,26.60
2023-02-12T07:27:18.913Z,26.60
2023-02-12T07:29:49.339Z,26.60
2023-02-12T07:32:19.616Z,26.60
2023-02-12T07:34:50.341Z,26.60
2023-02-12T07:37:24.250Z,26.70
2023-02-12T07:39:54.632Z,26.70
2023-02-12T07:42:24.968Z,26.70
2023-02-12T07:44:55.247Z,26.70
2023-02-12T07:47:25.430Z,26.70
2023-02-12T07:49:55.812Z,26.70
2023-02-12T07:52:26.097Z,26.70
2023-02-12T07:54:56.385Z,26.70
2023-02-12T07:57:26.645Z,26.70
2023-02-12T07:59:57.246Z,26.70
2023-02-12T08:02:27.620Z,26.70
2023-02-12T08:05:01.455Z,26.70
2023-02-12T08:07:32.622Z,26.70
2023-02-12T08:10:03.180Z,26.70
2023-02-12T08:12:33.501Z,26.70
2023-02-12T08:15:03.846Z,26.70
2023-02-12T08:17:34.163Z,26.80
2023-02-12T08:20:04.929Z,26.80
2023-02-12T08:22:35.352Z,26.80
2023-02-12T08:25:06.001Z,26.80
2023-02-12T08:27:36.526Z,26.80
2023-02-12T08:30:07.059Z,26.80
2023-02-12T08:32:37.393Z,26.80
2023-02-12T08:35:08.059Z,26.80
2023-02-12T08:37:38.384Z,26.80
2023-02-12T08:40:09.085Z,26.80
2023-02-12T08:42:39.350Z,26.80
2023-02-12T08:45:10.121Z,26.80
2023-02-12T08:47:40.356Z,26.80
2023-02-12T08:50:11.103Z,26.80
2023-02-12T08:52:43.073Z,26.80
2023-02-12T08:55:14.422Z,26.80
2023-02-12T08:57:45.417Z,26.80
2023-02-12T09:00:16.089Z,26.80
2023-02-12T09:02:46.473Z,26.80
2023-02-12T09:05:17.037Z,26.80
2023-02-12T09:07:47.234Z,26.80
2023-02-12T09:10:17.769Z,26.80
2023-02-12T09:12:47.986Z,26.80
2023-02-12T09:15:18.328Z,26.80
2023-02-12T09:17:48.565Z,26.80
2023-02-12T09:20:19.185Z,26.80
2023-02-12T09:22:49.400Z,26.80
2023-02-12T09:25:19.820Z,26.80
2023-02-12T09:27:50.102Z,26.80
2023-02-12T09:30:21.325Z,26.80
2023-02-12T09:32:51.646Z,26.80
2023-02-12T09:35:21.933Z,26.70
2023-02-12T09:37:52.354Z,26.80
2023-02-12T09:40:48.518Z,26.70
2023-02-12T09:43:21.906Z,26.70
2023-02-12T09:46:18.784Z,26.70
2023-02-12T09:48:57.945Z,26.70
2023-02-12T09:51:31.291Z,26.70
2023-02-12T09:54:20.488Z,26.70
2023-02-12T09:57:00.293Z,26.70
2023-02-12T09:59:47.333Z,26.70
2023-02-12T10:02:19.704Z,26.70
2023-02-12T10:05:00.743Z,26.70
2023-02-12T10:07:34.542Z,26.70
2023-02-12T10:10:41.018Z,26.60
2023-02-12T10:13:34.255Z,26.60
2023-02-12T10:16:21.822Z,26.60
2023-02-12T10:19:00.931Z,26.60
2023-02-12T10:21:48.971Z,26.60
2023-02-12T10:24:42.177Z,26.60
2023-02-12T10:27:19.192Z,26.60
2023-02-12T10:29:51.081Z,26.50
2023-02-12T10:32:33.268Z,26.60
2023-02-12T10:35:04.385Z,26.50
2023-02-12T10:37:47.608Z,26.60
2023-02-12T10:40:24.072Z,26.50
2023-02-12T10:42:55.933Z,26.50
2023-02-12T10:45:39.452Z,26.50
2023-02-12T10:48:26.659Z,26.50
2023-02-12T10:51:11.182Z,26.50
2023-02-12T10:53:47.218Z,26.50
2023-02-12T10:56:26.885Z,26.50
2023-02-12T10:59:03.404Z,26.50
2023-02-12T11:01:41.071Z,26.50
2023-02-12T11:04:31.226Z,26.40
2023-02-12T11:07:05.323Z,26.40
2023-02-12T11:09:46.988Z,26.40
2023-02-12T11:12:49.970Z,26.50
2023-02-12T11:15:22.133Z,26.40
2023-02-12T11:18:05.418Z,26.40
2023-02-12T11:20:52.886Z,26.40
2023-02-12T11:23:39.538Z,26.40
2023-02-12T11:26:23.470Z,26.40
2023-02-12T11:28:58.919Z,26.40
2023-02-12T11:31:35.537Z,26.30
2023-02-12T11:34:23.666Z,26.30
2023-02-12T11:36:56.144Z,26.30
2023-02-12T11:39:36.068Z,26.30
2023-02-12T11:42:16.428Z,26.40
2023-02-12T11:44:55.609Z,26.30
2023-02-12T11:47:35.615Z,26.30
2023-02-12T11:50:24.910Z,26.30
2023-02-12T11:52:59.745Z,26.30
2023-02-12T11:55:35.842Z,26.30
2023-02-12T11:58:16.422Z,26.30
2023-02-12T12:00:56.191Z,26.20
2023-02-12T12:03:45.742Z,26.30
2023-02-12T12:06:38.854Z,26.20
2023-02-12T12:09:25.253Z,26.30
2023-02-12T12:12:07.558Z,26.20
2023-02-12T12:15:08.386Z,26.20
2023-02-12T12:18:02.651Z,26.20
2023-02-12T12:20:41.351Z,26.20
2023-02-12T12:23:29.870Z,26.20
2023-02-12T12:26:27.998Z,26.20
2023-02-12T12:29:21.732Z,26.20
2023-02-12T12:32:19.594Z,26.20
2023-02-12T12:34:50.597Z,26.20
2023-02-12T12:37:23.846Z,26.10
2023-02-12T12:40:12.126Z,26.10
2023-02-12T12:43:00.676Z,26.10
2023-02-12T12:45:45.981Z,26.10
2023-02-12T12:48:51.200Z,26.10
2023-02-12T12:51:33.637Z,26.10
2023-02-12T12:54:38.179Z,26.10
2023-02-12T12:57:33.733Z,26.10
2023-02-12T13:00:29.777Z,26.00
2023-02-12T13:03:14.889Z,26.00
2023-02-12T13:06:15.703Z,26.00
2023-02-12T13:09:22.386Z,26.00
2023-02-12T13:12:15.461Z,26.00
2023-02-12T13:15:12.110Z,25.90
2023-02-12T13:18:08.597Z,25.90
2023-02-12T13:21:16.187Z,25.90
2023-02-12T13:23:55.436Z,25.90
2023-02-12T13:26:35.651Z,25.90
2023-02-12T13:29:13.857Z,25.80
2023-02-12T13:32:09.463Z,25.90
2023-02-12T13:34:41.804Z,25.80
2023-02-12T13:37:20.021Z,25.80
2023-02-12T13:39:52.739Z,25.80
2023-02-12T13:42:34.918Z,25.80
2023-02-12T13:45:27.212Z,25.80
2023-02-12T13:48:24.858Z,25.80
2023-02-12T13:51:01.259Z,25.80
2023-02-12T13:53:57.292Z,25.70
2023-02-12T13:56:45.540Z,25.80
2023-02-12T13:59:38.840Z,25.70
2023-02-12T14:02:15.031Z,25.70
2023-02-12T14:05:05.597Z,25.70
2023-02-12T14:07:57.753Z,25.70
2023-02-12T14:10:48.063Z,25.70
2023-02-12T14:13:29.806Z,25.70
2023-02-12T14:16:00.629Z,25.70
2023-02-12T14:18:35.351Z,25.60
2023-02-12T14:21:14.755Z,25.60
2023-02-12T14:23:48.962Z,25.60
2023-02-12T14:26:21.790Z,25.60
2023-02-12T14:29:18.861Z,25.60
2023-02-12T14:31:49.554Z,25.60
2023-02-12T14:34:20.201Z,25.60
2023-02-12T14:37:10.807Z,25.50
2023-02-12T14:39:41.058Z,25.50
2023-02-12T14:42:14.370Z,25.50
2023-02-12T14:45:00.643Z,25.50
2023-02-12T14:47:33.691Z,25.50
2023-02-12T14:50:24.561Z,25.50
2023-02-12T14:53:01.038Z,25.50
2023-02-12T14:55:36.546Z,25.50
2023-02-12T14:58:15.758Z,25.50
2023-02-12T15:00:50.053Z,25.50
2023-02-12T15:03:32.885Z,25.50
2023-02-12T15:06:11.668Z,25.40
2023-02-12T15:08:47.929Z,25.40
2023-02-12T15:11:53.740Z,25.40
2023-02-12T15:14:29.497Z,25.40
2023-02-12T15:17:08.566Z,25.40
2023-02-12T15:20:04.026Z,25.40
2023-02-12T15:22:40.285Z,25.40
2023-02-12T15:25:31.887Z,25.40
2023-02-12T15:28:20.154Z,25.40
2023-02-12T15:30:50.890Z,25.30
2023-02-12T15:33:33.613Z,25.30
2023-02-12T15:36:06.311Z,25.30
2023-02-12T15:38:46.533Z,25.30
2023-02-12T15:41:34.413Z,25.30
2023-02-12T15:44:20.594Z,25.30
2023-02-12T15:47:04.469Z,25.30
2023-02-12T15:49:38.083Z,25.30
2023-02-12T15:52:28.906Z,25.30
2023-02-12T15:54:59.219Z,25.20
2023-02-12T15:57:29.884Z,25.20
2023-02-12T16:00:09.591Z,25.20
2023-02-12T16:02:39.918Z,25.20
2023-02-12T16:05:13.045Z,25.20
2023-02-12T16:07:43.374Z,25.20
2023-02-12T16:10:20.168Z,25.20
2023-02-12T16:12:51.994Z,25.20
2023-02-12T16:15:33.815Z,25.20
2023-02-12T16:18:06.701Z,25.20
2023-02-12T16:20:37.118Z,25.20
2023-02-12T16:23:11.243Z,25.20
2023-02-12T16:25:42.001Z,25.20
2023-02-12T16:28:30.063Z,25.20
2023-02-12T16:31:15.429Z,25.20
2023-02-12T16:34:00.149Z,25.10
2023-02-12T16:36:32.837Z,25.10
2023-02-12T16:39:13.106Z,25.10
2023-02-12T16:42:16.830Z,25.10
2023-02-12T16:44:47.175Z,25.10
2023-02-12T16:47:25.203Z,25.00
2023-02-12T16:50:03.741Z,25.10
2023-02-12T16:52:37.264Z,25.10
2023-02-12T16:55:18.644Z,25.00
2023-02-12T16:57:49.276Z,25.00
2023-02-12T17:00:20.254Z,25.00
2023-02-12T17:02:50.972Z,25.00
2023-02-12T17:05:21.534Z,25.00
2023-02-12T17:07:52.467Z,25.00
2023-02-12T17:10:22.768Z,25.00
2023-02-12T17:12:54.910Z,25.00
2023-02-12T17:15:31.230Z,25.00
2023-02-12T17:18:01.815Z,25.00
2023-02-12T17:20:32.295Z,24.90
2023-02-12T17:23:02.829Z,24.90
2023-02-12T17:25:33.507Z,24.90
2023-02-12T17:28:03.720Z,24.90
2023-02-12T17:30:34.404Z,24.90
2023-02-12T17:33:05.136Z,24.90
2023-02-12T17:35:35.600Z,24.90
2023-02-12T17:38:05.897Z,24.90
2023-02-12T17:40:39.121Z,24.90
2023-02-12T17:43:09.718Z,24.90
2023-02-12T17:45:46.902Z,24.90
2023-02-12T17:48:18.846Z,24.90
2023-02-12T17:50:55.641Z,24.90
2023-02-12T17:53:26.344Z,24.90
2023-02-12T17:55:56.656Z,24.90
2023-02-12T17:58:26.836Z,24.90
2023-02-12T18:00:57.805Z,24.90
2023-02-12T18:03:28.264Z,24.80
2023-02-12T18:05:58.567Z,24.80
2023-02-12T18:08:31.605Z,24.90
2023-02-12T18:11:06.520Z,24.80
2023-02-12T18:13:41.008Z,24.80
2023-02-12T18:16:13.729Z,24.80
2023-02-12T18:18:44.180Z,24.80
2023-02-12T18:21:16.459Z,24.80
2023-02-12T18:23:47.197Z,24.80
2023-02-12T18:26:21.597Z,24.80
2023-02-12T18:28:52.211Z,24.80
2023-02-12T18:31:23.288Z,24.80
2023-02-12T18:33:54.073Z,24.80
2023-02-12T18:36:25.243Z,24.80
2023-02-12T18:38:55.749Z,24.70
2023-02-12T18:41:28.915Z,24.70
2023-02-12T18:44:00.996Z,24.70
2023-02-12T18:46:33.784Z,24.70
2023-02-12T18:49:05.166Z,24.70
2023-02-12T18:51:38.493Z,24.70
2023-02-12T18:54:12.772Z,24.70
2023-02-12T18:56:46.062Z,24.70
2023-02-12T18:59:17.360Z,24.70
2023-02-12T19:01:49.190Z,24.70
2023-02-12T19:04:22.158Z,24.70
2023-02-12T19:06:57.322Z,24.70
2023-02-12T19:09:28.753Z,24.60
2023-02-12T19:12:01.012Z,24.70
2023-02-12T19:14:31.745Z,24.70
2023-02-12T19:17:02.581Z,24.60
2023-02-12T19:19:32.856Z,24.60
2023-02-12T19:22:03.298Z,24.60
2023-02-12T19:24:45.852Z,24.60
2023-02-12T19:27:16.922Z,24.60
2023-02-12T19:29:47.422Z,24.60
2023-02-12T19:32:17.703Z,24.60
2023-02-12T19:34:48.021Z,24.60
2023-02-12T19:37:18.290Z,24.60
2023-02-12T19:39:48.591Z,24.50
2023-02-12T19:42:19.387Z,24.60
2023-02-12T19:44:49.697Z,24.60
2023-02-12T19:47:19.951Z,24.60
2023-02-12T19:49:50.222Z,24.50
2023-02-12T19:52:20.507Z,24.50
2023-02-12T19:54:50.733Z,24.50
2023-02-12T19:57:21.085Z,24.50
2023-02-12T19:59:52.440Z,24.50
2023-02-12T20:02:22.823Z,24.50
2023-02-12T20:04:53.027Z,24.50
2023-02-12T20:07:23.304Z,24.50
2023-02-12T20:09:53.988Z,24.50
2023-02-12T20:12:24.251Z,24.50
2023-02-12T20:14:57.296Z,24.50
2023-02-12T20:17:27.573Z,24.50
2023-02-12T20:19:57.881Z,24.40
2023-02-12T20:22:28.094Z,24.40
2023-02-12T20:24:58.321Z,24.40
2023-02-12T20:27:28.501Z,24.40
2023-02-12T20:29:58.988Z,24.40
2023-02-12T20:32:29.181Z,24.40
2023-02-12T20:34:59.454Z,24.40
2023-02-12T20:37:29.670Z,24.40
2023-02-12T20:39:59.844Z,24.40
2023-02-12T20:42:30.160Z,24.30
2023-02-12T20:45:00.503Z,24.40
2023-02-12T20:47:30.766Z,24.40
2023-02-12T20:50:01.769Z,24.30
2023-02-12T20:52:33.409Z,24.30
2023-02-12T20:55:03.769Z,24.30
2023-02-12T20:57:36.346Z,24.30
2023-02-12T21:00:07.582Z,24.30
2023-02-12T21:02:37.835Z,24.30
2023-02-12T21:05:08.576Z,24.30
2023-02-12T21:07:38.860Z,24.30
2023-02-12T21:10:09.761Z,24.30
2023-02-12T21:12:40.058Z,24.30
2023-02-12T21:15:10.631Z,24.30
2023-02-12T21:17:40.981Z,24.20
2023-02-12T21:20:11.669Z,24.20
2023-02-12T21:22:41.861Z,24.30
2023-02-12T21:25:12.204Z,24.20
2023-02-12T21:27:42.557Z,24.20
2023-02-12T21:30:13.008Z,24.20
2023-02-12T21:32:43.281Z,24.20
2023-02-12T21:35:13.588Z,24.20
2023-02-12T21:37:43.771Z,24.20
2023-02-12T21:40:14.432Z,24.20
2023-02-12T21:42:44.683Z,24.20
2023-02-12T21:45:14.937Z,24.10
2023-02-12T21:47:45.516Z,24.20
2023-02-12T21:50:15.858Z,24.10
2023-02-12T21:52:46.336Z,24.10
2023-02-12T21:55:16.748Z,24.10
2023-02-12T21:57:48.924Z,24.10
2023-02-12T22:00:19.613Z,24.10
2023-02-12T22:02:49.980Z,24.10
2023-02-12T22:05:20.296Z,24.10
2023-02-12T22:07:53.578Z,24.10
2023-02-12T22:10:23.989Z,24.10
2023-02-12T22:12:54.369Z,24.10
2023-02-12T22:15:25.129Z,24.10
2023-02-12T22:17:55.684Z,24.10
2023-02-12T22:20:25.908Z,24.00
2023-02-12T22:22:56.156Z,24.10
2023-02-12T22:25:26.447Z,24.10
2023-02-12T22:27:56.910Z,24.10
2023-02-12T22:30:27.123Z,24.00
2023-02-12T22:32:57.347Z,24.00
2023-02-12T22:35:27.576Z,24.00
2023-02-12T22:37:57.775Z,24.00
2023-02-12T22:40:28.037Z,24.00
2023-02-12T22:42:58.231Z,24.00
2023-02-12T22:45:28.557Z,24.00
2023-02-12T22:47:58.796Z,24.00
2023-02-12T22:50:29.077Z,24.00
2023-02-12T22:52:59.300Z,23.90
2023-02-12T22:55:29.489Z,23.90
2023-02-12T22:58:00.126Z,24.00
2023-02-12T23:00:30.374Z,24.00
2023-02-12T23:03:00.654Z,24.00
2023-02-12T23:05:31.164Z,24.00
2023-02-12T23:08:01.396Z,23.90
2023-02-12T23:10:31.629Z,24.00
2023-02-12T23:13:03.803Z,24.00
2023-02-12T23:15:34.143Z,24.00
2023-02-12T23:18:04.636Z,24.00
2023-02-12T23:20:34.885Z,24.00
2023-02-12T23:23:05.112Z,24.00
2023-02-12T23:25:35.347Z,24.00
2023-02-12T23:28:05.640Z,24.00
2023-02-12T23:30:36.001Z,24.00
2023-02-12T23:33:06.628Z,24.00
2023-02-12T23:35:36.873Z,24.00
2023-02-12T23:38:08.099Z,24.00
2023-02-12T23:40:38.360Z,24.00
2023-02-12T23:43:08.808Z,24.00
2023-02-12T23:45:39.281Z,24.00
2023-02-12T23:48:09.506Z,24.10
2023-02-12T23:50:39.768Z,24.00
2023-02-12T23:53:11.733Z,24.10
2023-02-12T23:55:42.410Z,24.10
2023-02-12T23:58:13.162Z,24.10
